createdAt,value
2023-01-25T00:01:56.892Z,9.13
2023-01-25T00:04:25.740Z,8.63
2023-01-25T00:06:54.923Z,9.10
2023-01-25T00:09:23.709Z,8.13
2023-01-25T00:11:53.331Z,9.30
2023-01-25T00:14:24.395Z,8.40
2023-01-25T00:16:54.240Z,9.30
2023-01-25T00:19:22.361Z,9.50
2023-01-25T00:21:50.725Z,9.90
2023-01-25T00:24:23.241Z,10.00
2023-01-25T00:26:51.698Z,10.60
2023-01-25T00:29:20.618Z,9.30
2023-01-25T00:32:22.539Z,10.13
2023-01-25T00:34:51.578Z,9.47
2023-01-25T00:37:25.587Z,9.17
2023-01-25T00:39:56.404Z,9.37
2023-01-25T00:42:24.765Z,8.80
2023-01-25T00:44:53.302Z,8.93
2023-01-25T00:47:22.826Z,9.07
2023-01-25T00:49:50.760Z,10.53
2023-01-25T00:52:18.879Z,10.40
2023-01-25T00:54:46.716Z,9.07
2023-01-25T00:57:14.898Z,9.83
2023-01-25T00:59:44.673Z,10.20
2023-01-25T01:02:13.756Z,10.40
2023-01-25T01:04:43.282Z,9.57
2023-01-25T01:07:13.547Z,11.27
2023-01-25T01:09:41.505Z,10.10
2023-01-25T01:12:09.423Z,10.77
2023-01-25T01:14:37.469Z,10.20
2023-01-25T01:17:06.642Z,9.83
2023-01-25T01:19:34.718Z,10.43
2023-01-25T01:22:04.115Z,11.60
2023-01-25T01:24:32.280Z,10.43
2023-01-25T01:27:00.179Z,10.70
2023-01-25T01:29:28.070Z,11.53
2023-01-25T01:31:56.494Z,10.73
2023-01-25T01:34:26.357Z,11.23
2023-01-25T01:36:55.419Z,11.77
2023-01-25T01:39:25.445Z,11.40
2023-01-25T01:41:53.428Z,12.07
2023-01-25T01:44:41.454Z,11.53
2023-01-25T01:47:10.539Z,11.60
2023-01-25T01:49:39.097Z,12.10
2023-01-25T01:52:17.712Z,10.67
2023-01-25T01:54:50.842Z,9.90
2023-01-25T01:57:21.997Z,10.23
2023-01-25T01:59:53.446Z,12.33
2023-01-25T02:02:22.680Z,10.70
2023-01-25T02:04:51.836Z,11.20
2023-01-25T02:07:24.202Z,10.70
2023-01-25T02:09:54.920Z,11.77
2023-01-25T02:12:25.236Z,10.53
2023-01-25T02:14:55.108Z,11.90
2023-01-25T02:17:28.495Z,11.07
2023-01-25T02:20:03.586Z,11.70
2023-01-25T02:22:36.196Z,9.57
2023-01-25T02:25:09.476Z,10.20
2023-01-25T02:27:43.982Z,10.10
2023-01-25T02:30:12.949Z,10.67
2023-01-25T02:32:41.778Z,9.80
2023-01-25T02:35:20.790Z,12.83
2023-01-25T02:37:51.344Z,11.53
2023-01-25T02:40:22.494Z,10.73
2023-01-25T02:42:51.854Z,10.83
2023-01-25T02:45:24.822Z,11.87
2023-01-25T02:47:54.956Z,11.13
2023-01-25T02:50:23.774Z,11.57
2023-01-25T02:52:52.247Z,12.03
2023-01-25T02:55:22.369Z,12.37
2023-01-25T02:57:51.641Z,12.00
2023-01-25T03:00:20.016Z,11.17
2023-01-25T03:02:48.200Z,9.80
2023-01-25T03:05:16.300Z,10.90
2023-01-25T03:07:44.775Z,11.30
2023-01-25T03:10:12.692Z,11.13
2023-01-25T03:12:41.972Z,11.27
2023-01-25T03:15:10.678Z,11.17
2023-01-25T03:17:39.005Z,11.27
2023-01-25T03:20:07.787Z,11.40
2023-01-25T03:22:36.067Z,10.90
2023-01-25T03:25:04.043Z,11.10
2023-01-25T03:27:32.061Z,11.53
2023-01-25T03:30:10.267Z,11.60
2023-01-25T03:32:38.867Z,10.67
2023-01-25T03:35:11.217Z,11.37
2023-01-25T03:37:39.631Z,11.53
2023-01-25T03:40:09.153Z,11.77
2023-01-25T03:42:37.639Z,10.80
2023-01-25T03:45:08.704Z,11.30
2023-01-25T03:47:37.417Z,10.43
2023-01-25T03:50:06.243Z,12.00
2023-01-25T03:52:38.633Z,11.97
2023-01-25T03:55:09.685Z,11.63
2023-01-25T03:57:41.947Z,11.90
2023-01-25T04:00:13.217Z,11.97
2023-01-25T04:02:46.192Z,11.10
2023-01-25T04:05:20.402Z,10.73
2023-01-25T04:07:48.603Z,12.33
2023-01-25T04:10:21.146Z,10.93
2023-01-25T04:12:50.156Z,11.10
2023-01-25T04:15:19.606Z,10.90
2023-01-25T04:17:47.666Z,11.70
2023-01-25T04:20:21.084Z,12.20
2023-01-25T04:22:49.099Z,11.27
2023-01-25T04:25:19.236Z,12.03
2023-01-25T04:27:52.083Z,12.20
2023-01-25T04:30:21.605Z,12.53
2023-01-25T04:32:51.084Z,11.87
2023-01-25T04:35:26.896Z,11.37
2023-01-25T04:37:55.987Z,12.50
2023-01-25T04:40:26.286Z,12.10
2023-01-25T04:42:54.167Z,12.53
2023-01-25T04:45:24.314Z,12.23
2023-01-25T04:47:57.314Z,12.60
2023-01-25T04:50:25.683Z,12.13
2023-01-25T04:52:54.732Z,12.70
2023-01-25T04:55:24.083Z,12.07
2023-01-25T04:57:53.799Z,11.53
2023-01-25T05:00:24.291Z,12.33
2023-01-25T05:02:54.034Z,11.80
2023-01-25T05:05:22.346Z,11.73
2023-01-25T05:07:50.362Z,12.37
2023-01-25T05:10:18.417Z,12.97
2023-01-25T05:13:06.223Z,12.17
2023-01-25T05:15:35.834Z,12.30
2023-01-25T05:18:04.342Z,12.37
2023-01-25T05:20:33.791Z,12.23
2023-01-25T05:23:01.992Z,12.73
2023-01-25T05:25:48.940Z,12.13
2023-01-25T05:28:21.115Z,12.40
2023-01-25T05:31:14.933Z,10.73
2023-01-25T05:33:43.969Z,11.67
2023-01-25T05:36:12.004Z,11.90
2023-01-25T05:38:40.013Z,12.90
2023-01-25T05:41:10.390Z,12.23
2023-01-25T05:43:38.421Z,12.83
2023-01-25T05:46:08.295Z,11.67
2023-01-25T05:48:37.930Z,11.77
2023-01-25T05:51:06.127Z,11.77
2023-01-25T05:53:34.653Z,12.67
2023-01-25T05:56:05.803Z,12.00
2023-01-25T05:58:33.870Z,12.80
2023-01-25T06:01:03.539Z,12.80
2023-01-25T06:03:42.660Z,12.53
2023-01-25T06:06:10.640Z,13.83
2023-01-25T06:08:38.535Z,13.20
2023-01-25T06:11:11.282Z,12.53
2023-01-25T06:13:44.985Z,13.70
2023-01-25T06:16:13.178Z,12.90
2023-01-25T06:18:49.580Z,13.13
2023-01-25T06:21:39.858Z,13.47
2023-01-25T06:24:09.457Z,13.20
2023-01-25T06:26:38.660Z,14.67
2023-01-25T06:29:07.517Z,12.93
2023-01-25T06:31:36.642Z,13.90
2023-01-25T06:34:09.004Z,13.80
2023-01-25T06:36:37.651Z,12.70
2023-01-25T06:39:07.068Z,13.00
2023-01-25T06:41:36.941Z,14.10
2023-01-25T06:44:06.214Z,12.20
2023-01-25T06:46:35.549Z,14.00
2023-01-25T06:49:04.608Z,13.53
2023-01-25T06:51:34.223Z,12.43
2023-01-25T06:54:04.770Z,12.63
2023-01-25T06:56:34.186Z,12.63
2023-01-25T06:59:02.928Z,12.80
2023-01-25T07:01:32.086Z,11.40
2023-01-25T07:04:00.541Z,12.30
2023-01-25T07:06:34.368Z,11.80
2023-01-25T07:09:07.408Z,13.03
2023-01-25T07:11:38.559Z,11.77
2023-01-25T07:14:07.339Z,12.70
2023-01-25T07:16:38.908Z,13.30
2023-01-25T07:19:08.580Z,13.00
2023-01-25T07:21:38.181Z,13.90
2023-01-25T07:24:06.883Z,13.00
2023-01-25T07:26:35.403Z,12.77
2023-01-25T07:29:03.605Z,13.43
2023-01-25T07:31:31.623Z,14.40
2023-01-25T07:33:59.880Z,13.60
2023-01-25T07:36:28.256Z,12.53
2023-01-25T07:38:58.485Z,11.43
2023-01-25T07:41:26.790Z,11.70
2023-01-25T07:43:54.861Z,11.57
2023-01-25T07:46:43.338Z,11.97
2023-01-25T07:49:11.389Z,12.90
2023-01-25T07:51:39.445Z,11.90
2023-01-25T07:54:10.855Z,12.20
2023-01-25T07:56:40.609Z,12.30
2023-01-25T07:59:09.460Z,11.23
2023-01-25T08:01:38.212Z,12.50
2023-01-25T08:04:06.601Z,12.97
2023-01-25T08:06:39.323Z,12.10
2023-01-25T08:09:12.497Z,12.50
2023-01-25T08:11:42.473Z,12.27
2023-01-25T08:14:11.482Z,12.07
2023-01-25T08:16:39.595Z,12.30
2023-01-25T08:19:07.537Z,12.00
2023-01-25T08:21:36.305Z,12.97
2023-01-25T08:24:06.047Z,13.30
2023-01-25T08:26:36.019Z,13.83
2023-01-25T08:29:04.521Z,12.33
2023-01-25T08:31:34.544Z,12.00
2023-01-25T08:34:03.155Z,11.67
2023-01-25T08:36:31.265Z,12.13
2023-01-25T08:39:00.899Z,11.17
2023-01-25T08:41:29.784Z,12.00
2023-01-25T08:43:59.300Z,12.00
2023-01-25T08:46:31.385Z,10.80
2023-01-25T08:49:00.643Z,12.57
2023-01-25T08:51:29.086Z,10.63
2023-01-25T08:53:56.901Z,12.43
2023-01-25T08:56:24.789Z,13.27
2023-01-25T08:58:52.753Z,11.63
2023-01-25T09:01:22.040Z,12.23
2023-01-25T09:03:51.122Z,11.87
2023-01-25T09:06:20.855Z,13.10
2023-01-25T09:08:49.022Z,13.20
2023-01-25T09:11:18.519Z,12.90
2023-01-25T09:13:46.515Z,14.93
2023-01-25T09:16:15.939Z,14.73
2023-01-25T09:18:50.451Z,13.27
2023-01-25T09:21:19.605Z,10.97
2023-01-25T09:23:57.443Z,12.90
2023-01-25T09:26:32.493Z,13.50
2023-01-25T09:29:00.712Z,13.67
2023-01-25T09:31:30.390Z,13.53
2023-01-25T09:34:35.075Z,13.97
2023-01-25T09:37:03.071Z,13.83
2023-01-25T09:39:31.356Z,14.70
2023-01-25T09:42:32.806Z,12.87
2023-01-25T09:45:13.184Z,13.10
2023-01-25T09:47:47.134Z,12.77
2023-01-25T09:50:38.394Z,12.53
2023-01-25T09:53:29.337Z,13.10
2023-01-25T09:55:59.708Z,12.67
2023-01-25T09:58:32.679Z,12.57
2023-01-25T10:01:14.996Z,13.87
2023-01-25T10:03:48.979Z,11.77
2023-01-25T10:06:19.890Z,13.40
2023-01-25T10:08:55.028Z,13.67
2023-01-25T10:11:24.848Z,13.70
2023-01-25T10:13:52.919Z,13.70
2023-01-25T10:16:25.989Z,13.47
2023-01-25T10:19:00.390Z,13.90
2023-01-25T10:21:33.788Z,11.67
2023-01-25T10:24:46.589Z,14.20
2023-01-25T10:27:24.070Z,12.50
2023-01-25T10:29:53.986Z,12.73
2023-01-25T10:32:27.308Z,13.30
2023-01-25T10:34:57.827Z,12.67
2023-01-25T10:37:29.154Z,14.30
2023-01-25T10:40:01.294Z,11.73
2023-01-25T10:42:32.759Z,11.43
2023-01-25T10:45:00.644Z,13.83
2023-01-25T10:47:30.532Z,12.57
2023-01-25T10:49:59.560Z,14.13
2023-01-25T10:52:30.373Z,12.93
2023-01-25T10:55:15.330Z,13.43
2023-01-25T10:57:44.681Z,12.93
2023-01-25T11:00:26.969Z,13.80
2023-01-25T11:02:55.968Z,14.30
2023-01-25T11:05:34.600Z,12.53
2023-01-25T11:08:23.219Z,13.27
2023-01-25T11:10:51.715Z,12.33
2023-01-25T11:13:21.847Z,12.23
2023-01-25T11:15:52.363Z,12.27
2023-01-25T11:18:22.577Z,11.57
2023-01-25T11:21:05.465Z,12.83
2023-01-25T11:23:34.916Z,12.10
2023-01-25T11:26:14.142Z,13.67
2023-01-25T11:28:42.078Z,12.27
2023-01-25T11:31:13.173Z,13.07
2023-01-25T11:33:41.747Z,12.83
2023-01-25T11:36:19.939Z,12.97
2023-01-25T11:38:56.864Z,13.23
2023-01-25T11:41:28.358Z,11.53
2023-01-25T11:44:12.028Z,12.40
2023-01-25T11:46:49.471Z,12.37
2023-01-25T11:49:29.093Z,13.43
2023-01-25T11:52:03.905Z,11.53
2023-01-25T11:54:42.879Z,11.30
2023-01-25T11:57:25.772Z,12.47
2023-01-25T12:00:11.603Z,13.50
2023-01-25T12:02:59.993Z,11.47
2023-01-25T12:05:37.267Z,11.97
2023-01-25T12:08:17.989Z,11.80
2023-01-25T12:10:52.874Z,12.00
2023-01-25T12:13:25.310Z,12.60
2023-01-25T12:16:05.046Z,11.10
2023-01-25T12:19:01.879Z,12.77
2023-01-25T12:21:41.325Z,10.30
2023-01-25T12:24:22.116Z,10.43
2023-01-25T12:26:57.350Z,11.20
2023-01-25T12:29:27.913Z,11.20
2023-01-25T12:31:59.724Z,11.63
2023-01-25T12:34:33.859Z,12.00
2023-01-25T12:37:07.813Z,10.50
2023-01-25T12:39:40.807Z,10.50
2023-01-25T12:42:17.769Z,10.90
2023-01-25T12:44:48.427Z,9.80
2023-01-25T12:47:20.603Z,12.13
2023-01-25T12:49:52.624Z,10.80
2023-01-25T12:52:24.895Z,11.63
2023-01-25T12:54:56.742Z,11.30
2023-01-25T12:57:30.583Z,11.87
2023-01-25T13:00:04.398Z,11.80
2023-01-25T13:02:50.460Z,10.47
2023-01-25T13:05:26.490Z,11.57
2023-01-25T13:07:59.924Z,12.30
2023-01-25T13:10:30.805Z,12.33
2023-01-25T13:13:03.946Z,12.47
2023-01-25T13:15:40.093Z,12.13
2023-01-25T13:18:37.997Z,11.30
2023-01-25T13:21:11.509Z,11.80
2023-01-25T13:23:43.923Z,12.60
2023-01-25T13:26:44.549Z,11.73
2023-01-25T13:29:47.294Z,11.70
2023-01-25T13:32:16.568Z,12.50
2023-01-25T13:35:02.469Z,12.60
2023-01-25T13:37:31.693Z,11.00
2023-01-25T13:40:05.946Z,11.07
2023-01-25T13:42:34.792Z,11.80
2023-01-25T13:45:06.238Z,11.77
2023-01-25T13:47:37.901Z,11.90
2023-01-25T13:50:18.669Z,11.20
2023-01-25T13:52:57.898Z,12.60
2023-01-25T13:55:26.765Z,11.67
2023-01-25T13:57:55.571Z,11.40
2023-01-25T14:00:25.577Z,12.30
2023-01-25T14:02:55.934Z,10.90
2023-01-25T14:05:26.174Z,12.47
2023-01-25T14:07:55.658Z,11.57
2023-01-25T14:10:26.323Z,11.40
2023-01-25T14:12:55.384Z,11.87
2023-01-25T14:15:26.426Z,11.70
2023-01-25T14:18:13.285Z,11.87
2023-01-25T14:20:42.143Z,11.00
2023-01-25T14:23:24.357Z,11.00
2023-01-25T14:25:53.967Z,12.00
2023-01-25T14:28:22.668Z,12.27
2023-01-25T14:30:56.509Z,10.20
2023-01-25T14:33:27.742Z,10.80
2023-01-25T14:36:01.596Z,11.73
2023-01-25T14:38:31.994Z,13.07
2023-01-25T14:41:03.806Z,13.47
2023-01-25T14:43:31.966Z,11.70
2023-01-25T14:46:01.340Z,11.33
2023-01-25T14:48:40.570Z,11.30
2023-01-25T14:51:26.012Z,11.77
2023-01-25T14:53:59.413Z,11.93
2023-01-25T14:56:32.727Z,12.30
2023-01-25T14:59:01.114Z,11.77
2023-01-25T15:01:38.124Z,12.27
2023-01-25T15:04:11.468Z,12.23
2023-01-25T15:06:49.553Z,11.80
2023-01-25T15:09:42.302Z,13.17
2023-01-25T15:12:29.013Z,12.77
2023-01-25T15:14:58.442Z,13.37
2023-01-25T15:17:45.481Z,13.30
2023-01-25T15:20:34.177Z,12.40
2023-01-25T15:23:05.499Z,12.77
2023-01-25T15:25:33.403Z,12.40
2023-01-25T15:28:01.293Z,13.30
2023-01-25T15:30:29.558Z,12.83
2023-01-25T15:32:59.134Z,12.57
2023-01-25T15:35:27.763Z,12.20
2023-01-25T15:37:55.689Z,14.40
2023-01-25T15:40:23.820Z,13.50
2023-01-25T15:42:51.730Z,13.37
2023-01-25T15:45:19.523Z,12.73
2023-01-25T15:47:47.372Z,11.90
2023-01-25T15:50:20.091Z,12.97
2023-01-25T15:52:48.397Z,12.63
2023-01-25T15:55:16.258Z,13.53
2023-01-25T15:57:46.844Z,13.03
2023-01-25T16:00:19.151Z,12.63
2023-01-25T16:02:46.986Z,12.93
2023-01-25T16:05:15.603Z,11.90
2023-01-25T16:07:45.542Z,12.10
2023-01-25T16:10:21.783Z,12.90
2023-01-25T16:12:49.952Z,12.47
2023-01-25T16:15:18.017Z,13.53
2023-01-25T16:17:45.889Z,14.00
2023-01-25T16:20:20.197Z,13.83
2023-01-25T16:22:49.424Z,12.87
2023-01-25T16:25:17.890Z,12.90
2023-01-25T16:27:45.742Z,13.17
2023-01-25T16:30:19.382Z,12.70
2023-01-25T16:32:49.304Z,12.30
2023-01-25T16:35:17.274Z,11.10
2023-01-25T16:37:45.090Z,11.60
2023-01-25T16:40:23.350Z,13.00
2023-01-25T16:42:51.378Z,13.60
2023-01-25T16:45:20.154Z,12.57
2023-01-25T16:47:48.418Z,13.03
2023-01-25T16:50:18.006Z,13.20
2023-01-25T16:52:46.085Z,12.23
2023-01-25T16:55:14.967Z,14.10
2023-01-25T16:57:44.982Z,12.83
2023-01-25T17:00:14.636Z,13.57
2023-01-25T17:02:53.355Z,12.23
2023-01-25T17:05:29.079Z,12.50
2023-01-25T17:07:57.034Z,11.30
2023-01-25T17:10:25.314Z,11.50
2023-01-25T17:12:54.498Z,11.60
2023-01-25T17:15:22.439Z,12.07
2023-01-25T17:17:50.887Z,11.70
2023-01-25T17:20:18.998Z,12.57
2023-01-25T17:22:51.008Z,11.50
2023-01-25T17:25:18.941Z,13.10
2023-01-25T17:27:47.079Z,12.80
2023-01-25T17:30:18.409Z,10.23
2023-01-25T17:32:46.321Z,10.90
2023-01-25T17:35:14.222Z,12.30
2023-01-25T17:37:42.048Z,13.23
2023-01-25T17:40:11.724Z,13.70
2023-01-25T17:42:39.790Z,12.60
2023-01-25T17:45:09.277Z,13.37
2023-01-25T17:47:39.125Z,13.10
2023-01-25T17:50:08.709Z,14.83
2023-01-25T17:52:36.791Z,14.47
2023-01-25T17:55:05.795Z,15.47
2023-01-25T17:57:35.514Z,14.23
2023-01-25T18:00:04.077Z,13.10
2023-01-25T18:02:45.027Z,12.30
2023-01-25T18:05:13.970Z,12.50
2023-01-25T18:07:41.800Z,13.70
2023-01-25T18:10:10.864Z,11.83
2023-01-25T18:12:39.059Z,14.07
2023-01-25T18:15:08.301Z,13.57
2023-01-25T18:17:38.787Z,12.60
2023-01-25T18:20:11.738Z,15.10
2023-01-25T18:22:39.572Z,14.03
2023-01-25T18:25:11.904Z,13.63
2023-01-25T18:27:39.880Z,12.13
2023-01-25T18:30:30.448Z,11.13
2023-01-25T18:32:58.305Z,12.03
2023-01-25T18:35:27.583Z,13.40
2023-01-25T18:37:55.819Z,12.57
2023-01-25T18:40:23.712Z,12.30
2023-01-25T18:42:52.794Z,13.33
2023-01-25T18:45:21.169Z,15.60
2023-01-25T18:47:49.186Z,14.50
2023-01-25T18:50:18.720Z,13.47
2023-01-25T18:52:55.981Z,13.63
2023-01-25T18:55:40.938Z,13.97
2023-01-25T18:58:15.368Z,14.43
2023-01-25T19:00:43.460Z,14.80
2023-01-25T19:03:11.292Z,13.50
2023-01-25T19:05:39.308Z,13.57
2023-01-25T19:08:08.595Z,13.37
2023-01-25T19:10:36.439Z,13.60
2023-01-25T19:13:04.273Z,15.80
2023-01-25T19:15:32.515Z,14.17
2023-01-25T19:18:00.427Z,14.33
2023-01-25T19:20:28.662Z,14.20
2023-01-25T19:22:56.707Z,14.67
2023-01-25T19:25:26.012Z,13.47
2023-01-25T19:27:53.843Z,13.30
2023-01-25T19:30:21.769Z,14.17
2023-01-25T19:32:49.698Z,13.67
2023-01-25T19:35:17.569Z,12.93
2023-01-25T19:37:45.403Z,12.60
2023-01-25T19:40:14.622Z,13.80
2023-01-25T19:42:43.785Z,13.40
2023-01-25T19:45:12.713Z,13.07
2023-01-25T19:47:40.559Z,13.10
2023-01-25T19:50:09.739Z,12.40
2023-01-25T19:52:37.581Z,13.40
2023-01-25T19:55:06.203Z,12.40
2023-01-25T19:57:34.163Z,14.77
2023-01-25T20:00:03.486Z,15.53
2023-01-25T20:02:34.642Z,14.67
2023-01-25T20:05:02.496Z,14.30
2023-01-25T20:07:30.309Z,14.97
2023-01-25T20:09:58.171Z,12.10
2023-01-25T20:12:26.145Z,12.63
2023-01-25T20:14:54.056Z,12.07
2023-01-25T20:17:23.594Z,14.17
2023-01-25T20:19:51.454Z,14.20
2023-01-25T20:22:19.267Z,13.70
2023-01-25T20:24:47.111Z,14.60
2023-01-25T20:27:14.933Z,13.37
2023-01-25T20:29:42.798Z,13.60
2023-01-25T20:32:17.088Z,13.03
2023-01-25T20:34:55.972Z,11.70
2023-01-25T20:37:24.083Z,14.50
2023-01-25T20:39:51.891Z,13.30
2023-01-25T20:42:19.676Z,14.67
2023-01-25T20:44:47.483Z,12.80
2023-01-25T20:47:16.305Z,14.10
2023-01-25T20:49:44.607Z,14.20
2023-01-25T20:52:14.394Z,12.90
2023-01-25T20:54:46.564Z,13.20
2023-01-25T20:57:14.701Z,13.17
2023-01-25T20:59:42.661Z,13.97
2023-01-25T21:02:11.610Z,13.60
2023-01-25T21:04:39.783Z,11.77
2023-01-25T21:07:07.767Z,13.33
2023-01-25T21:09:36.975Z,12.33
2023-01-25T21:12:05.148Z,11.93
2023-01-25T21:14:33.385Z,12.40
2023-01-25T21:17:01.250Z,12.83
2023-01-25T21:19:29.576Z,12.63
2023-01-25T21:21:57.509Z,12.57
2023-01-25T21:24:25.745Z,12.60
2023-01-25T21:26:55.154Z,14.40
2023-01-25T21:29:23.028Z,13.30
2023-01-25T21:31:53.133Z,13.30
2023-01-25T21:34:21.679Z,13.70
2023-01-25T21:36:49.970Z,13.90
2023-01-25T21:39:17.812Z,14.90
2023-01-25T21:41:45.721Z,14.20
2023-01-25T21:44:32.158Z,13.70
2023-01-25T21:47:27.878Z,13.30
2023-01-25T21:50:05.125Z,13.60
2023-01-25T21:52:36.228Z,13.70
2023-01-25T21:55:04.735Z,14.47
2023-01-25T21:57:32.988Z,14.67
2023-01-25T22:00:02.186Z,13.87
2023-01-25T22:02:32.714Z,13.70
2023-01-25T22:05:00.560Z,14.80
2023-01-25T22:07:28.385Z,13.80
2023-01-25T22:09:56.865Z,14.37
2023-01-25T22:12:24.693Z,13.93
2023-01-25T22:14:52.525Z,14.27
2023-01-25T22:17:22.574Z,14.50
2023-01-25T22:19:50.406Z,15.40
2023-01-25T22:22:18.240Z,16.13
2023-01-25T22:24:46.105Z,15.47
2023-01-25T22:27:33.162Z,17.13
2023-01-25T22:30:01.189Z,14.57
2023-01-25T22:32:30.411Z,15.23
2023-01-25T22:34:58.219Z,15.10
2023-01-25T22:37:26.046Z,13.17
2023-01-25T22:39:58.241Z,13.30
2023-01-25T22:42:26.425Z,15.13
2023-01-25T22:44:54.274Z,14.17
2023-01-25T22:47:22.178Z,13.60
2023-01-25T22:49:52.202Z,13.87
2023-01-25T22:52:20.039Z,14.17
2023-01-25T22:54:50.198Z,14.20
2023-01-25T22:57:18.022Z,14.23
2023-01-25T22:59:45.886Z,13.73
2023-01-25T23:02:13.712Z,13.23
2023-01-25T23:04:41.604Z,13.30
2023-01-25T23:07:18.668Z,12.83
2023-01-25T23:09:51.411Z,13.90
2023-01-25T23:12:19.654Z,15.97
2023-01-25T23:14:54.052Z,12.07
2023-01-25T23:17:40.950Z,12.10
2023-01-25T23:20:11.453Z,11.50
2023-01-25T23:22:41.671Z,12.60
2023-01-25T23:25:10.851Z,12.83
2023-01-25T23:27:38.986Z,12.63
2023-01-25T23:30:09.282Z,13.30
2023-01-25T23:32:37.443Z,13.97
2023-01-25T23:35:06.008Z,14.40
2023-01-25T23:37:33.856Z,14.03
2023-01-25T23:40:03.056Z,13.30
2023-01-25T23:42:30.933Z,13.67
2023-01-25T23:44:58.728Z,12.70
2023-01-25T23:47:26.562Z,13.30
2023-01-25T23:49:54.346Z,13.47
2023-01-25T23:52:22.252Z,11.97
2023-01-25T23:54:50.091Z,13.60
2023-01-25T23:57:20.161Z,14.20
2023-01-25T23:59:47.979Z,14.10
